Time;durP1;ratioP1;P1;durP2;ratioP2;P2;SDS_P1;SDS_P2;PMS_P1;PMS_P2;Temp;Humidity;BMP_temperature;BMP_pressure;BME280_temperature;BME280_humidity;BME280_pressure;Samples;Min_cycle;Max_cycle;Signal;HPM_P1;HPM_P2
2023/11/05 00:01:14;;;;;;;;;;;;;;;;;;;;;
2023/11/05 00:04:29;;;;;;;;;0.00;0.00;;;;;15.40;55.50;100094.81;146619;574;47014;-81
2023/11/05 00:07:31;;;;;;;;;0.00;0.00;;;;;16.62;55.71;100309.22;146619;577;46012;-79
2023/11/05 00:10:39;;;;;;;;;0.00;0.00;;;;;16.62;55.82;100303.97;146620;593;46016;-80
2023/11/05 00:13:51;;;;;;;;;0.00;0.00;;;;;16.57;56.12;100299.50;146622;589;46025;-78
2023/11/05 00:16:46;;;;;;;;;0.00;0.00;;;;;16.46;55.86;100287.94;146615;686;46016;-78
2023/11/05 00:19:47;;;;;;;;;0.00;0.00;;;;;16.33;56.15;100271.13;146639;600;45010;-79
2023/11/05 00:22:43;;;;;;;;;0.00;0.00;;;;;16.26;56.51;100271.81;146631;564;45918;-80
2023/11/05 00:25:56;;;;;;;;;0.00;0.00;;;;;14.99;56.54;100066.94;146636;599;45010;-80
2023/11/05 00:28:55;;;;;;;;;0.00;0.00;;;;;16.26;56.29;100295.38;146633;698;46016;-80
2023/11/05 00:31:54;;;;;;;;;0.00;0.00;;;;;16.32;56.21;100301.63;146635;650;46021;-79
2023/11/05 00:34:56;;;;;;;;;0.00;0.00;;;;;16.37;55.89;100302.59;146633;573;46918;-79
2023/11/05 00:37:53;;;;;;;;;0.00;0.00;;;;;16.46;56.00;100306.28;146637;648;45010;-77
2023/11/05 00:41:07;;;;;;;;;0.00;0.00;;;;;15.18;55.23;100069.97;146637;636;45012;-78
2023/11/05 00:44:16;;;;;;;;;0.00;0.00;;;;;16.50;56.00;100303.72;146630;597;46010;-77
2023/11/05 00:47:08;;;;;;;;;0.00;0.00;;;;;16.50;55.99;100308.97;146635;636;45016;-78
2023/11/05 00:50:26;;;;;;;;;0.00;0.00;;;;;16.54;55.93;100299.44;146640;611;45020;-78
2023/11/05 00:53:24;;;;;;;;;0.00;0.00;;;;;16.57;56.54;100294.25;146638;595;46010;-73
2023/11/05 00:56:20;;;;;;;;;0.00;0.00;;;;;16.53;56.31;100298.56;146635;598;45020;-76
2023/11/05 00:59:21;;;;;;;;;0.00;0.00;;;;;16.43;57.16;100301.84;146637;564;46013;-75
2023/11/05 01:02:25;;;;;;;;;0.00;0.00;;;;;16.28;58.06;100312.00;146636;664;46020;-75
2023/11/05 01:05:27;;;;;;;;;0.00;0.00;;;;;16.13;57.91;100313.41;146638;569;46012;-76
2023/11/05 01:08:31;;;;;;;;;0.00;0.00;;;;;16.05;57.99;100301.91;146635;597;45020;-76
2023/11/05 01:11:29;;;;;;;;;0.00;0.00;;;;;15.97;58.68;100319.16;146638;575;45016;-77
2023/11/05 01:14:32;;;;;;;;;0.67;0.00;;;;;15.82;59.06;100311.81;146639;564;45918;-79
2023/11/05 01:17:32;;;;;;;;;1.67;0.00;;;;;15.66;59.82;100307.94;146632;575;46030;-78
2023/11/05 01:20:36;;;;;;;;;1.00;0.00;;;;;15.50;60.00;100303.19;146623;576;45032;-77
2023/11/05 01:23:33;;;;;;;;;0.33;0.00;;;;;15.38;60.73;100305.50;146618;581;46016;-78
2023/11/05 01:26:27;;;;;;;;;2.00;0.00;;;;;15.29;60.90;100298.31;146613;603;47010;-77
2023/11/05 01:29:42;;;;;;;;;0.00;0.00;;;;;13.93;60.15;100073.81;146618;597;47012;-75
2023/11/05 01:32:39;;;;;;;;;0.00;0.00;;;;;15.27;60.33;100306.97;146623;657;46010;-79
2023/11/05 01:35:36;;;;;;;;;0.00;0.00;;;;;15.28;60.90;100313.97;146619;571;46013;-77
2023/11/05 01:38:28;;;;;;;;;0.00;0.00;;;;;15.35;60.83;100297.59;146621;670;45020;-78
2023/11/05 01:41:28;;;;;;;;;0.00;0.00;;;;;15.36;60.56;100304.59;146619;621;46014;-77
2023/11/05 01:44:24;;;;;;;;;0.00;0.00;;;;;15.36;60.33;100302.88;146621;575;47010;-75
2023/11/05 01:47:19;;;;;;;;;0.33;0.00;;;;;15.33;60.37;100294.94;146616;594;46012;-77
2023/11/05 01:50:35;;;;;;;;;0.00;0.00;;;;;15.33;59.47;100302.78;146623;578;46021;-76
2023/11/05 01:53:35;;;;;;;;;0.00;0.00;;;;;15.37;60.21;100296.78;146623;602;45037;-75
2023/11/05 01:56:44;;;;;;;;;0.00;0.00;;;;;15.39;59.85;100309.88;146616;565;46010;-77
2023/11/05 01:59:48;;;;;;;;;0.00;0.00;;;;;15.43;59.63;100304.78;146619;599;46016;-78
2023/11/05 02:02:47;;;;;;;;;0.00;0.00;;;;;15.42;59.33;100305.63;146624;634;46010;-78
2023/11/05 02:05:58;;;;;;;;;0.00;0.00;;;;;15.49;58.44;100291.00;146621;569;46920;-77
2023/11/05 02:08:58;;;;;;;;;0.00;0.00;;;;;15.62;58.13;100294.78;146620;630;46020;-77
2023/11/05 02:12:31;;;;;;;;;0.00;0.00;;;;;14.50;57.61;100072.69;146616;587;46012;-77
2023/11/05 02:15:26;;;;;;;;;0.00;0.00;;;;;15.90;57.45;100285.88;146621;585;47010;-77
2023/11/05 02:18:41;;;;;;;;;0.00;0.00;;;;;16.06;56.97;100294.94;146619;646;47012;-78
2023/11/05 02:22:01;;;;;;;;;0.00;0.00;;;;;16.22;56.71;100307.50;146620;595;47020;-77
2023/11/05 02:25:00;;;;;;;;;0.00;0.00;;;;;16.33;56.53;100297.28;146620;604;46016;-78
2023/11/05 02:28:24;;;;;;;;;0.00;0.00;;;;;16.41;56.34;100295.69;146616;567;46020;-77
2023/11/05 02:31:35;;;;;;;;;0.00;0.00;;;;;16.50;56.14;100281.91;146618;581;47014;-78
2023/11/05 02:34:31;;;;;;;;;0.00;0.00;;;;;16.55;56.14;100275.06;146624;572;46021;-78
2023/11/05 02:37:34;;;;;;;;;0.00;0.00;;;;;16.58;55.93;100275.13;146617;698;47012;-78
2023/11/05 02:40:31;;;;;;;;;0.00;0.00;;;;;16.65;55.83;100297.06;146620;613;46010;-79
2023/11/05 02:43:46;;;;;;;;;0.00;0.00;;;;;16.69;55.34;100285.78;146620;654;46032;-78
2023/11/05 02:46:43;;;;;;;;;0.00;0.00;;;;;16.71;55.20;100286.69;146624;563;46010;-78
2023/11/05 02:49:46;;;;;;;;;0.00;0.00;;;;;16.71;55.07;100292.81;146620;651;47013;-79
2023/11/05 02:52:43;;;;;;;;;0.00;0.00;;;;;16.72;55.38;100298.94;146624;575;46010;-78
2023/11/05 02:55:35;;;;;;;;;0.00;0.00;;;;;16.75;55.08;100297.28;146615;601;48010;-79
2023/11/05 02:58:39;;;;;;;;;0.00;0.00;;;;;16.82;55.61;100301.81;146617;604;46010;-79
2023/11/05 03:01:37;;;;;;;;;0.00;0.00;;;;;16.88;55.97;100310.59;146616;593;47012;-81
2023/11/05 03:04:34;;;;;;;;;0.00;0.00;;;;;16.92;56.67;100322.94;146622;683;47012;-79
2023/11/05 03:07:27;;;;;;;;;0.00;0.00;;;;;16.92;56.37;100328.16;146616;565;47012;-78
2023/11/05 03:10:39;;;;;;;;;0.33;0.00;;;;;16.85;55.97;100328.06;146623;575;45020;-77
2023/11/05 03:13:44;;;;;;;;;0.00;0.00;;;;;16.80;56.53;100319.22;146620;683;46037;-78
2023/11/05 03:16:51;;;;;;;;;0.00;0.00;;;;;16.72;56.92;100328.59;146622;569;46010;-77
2023/11/05 03:19:54;;;;;;;;;0.00;0.00;;;;;16.59;57.49;100319.63;146633;565;47012;-75
2023/11/05 03:22:52;;;;;;;;;0.00;0.00;;;;;16.52;57.73;100314.25;146637;589;46023;-76
2023/11/05 03:26:00;;;;;;;;;0.00;0.00;;;;;16.47;57.54;100323.72;146635;671;46015;-75
2023/11/05 03:29:00;;;;;;;;;0.00;0.00;;;;;16.40;58.88;100317.47;146633;571;46916;-76
2023/11/05 03:32:10;;;;;;;;;0.00;0.00;;;;;16.33;57.86;100311.25;146633;575;46016;-76
2023/11/05 03:35:14;;;;;;;;;0.00;0.00;;;;;16.25;58.52;100311.91;146636;597;45021;-82
2023/11/05 03:38:06;;;;;;;;;0.00;0.00;;;;;16.20;59.21;100324.00;146633;563;46012;-84
2023/11/05 03:41:04;;;;;;;;;1.00;0.67;;;;;16.16;58.22;100321.31;146637;580;45021;-80
2023/11/05 03:44:06;;;;;;;;;2.00;0.67;;;;;16.19;57.46;100322.25;146638;620;45016;-74
2023/11/05 03:47:20;;;;;;;;;;;;;;;;;;;;;
2023/11/05 03:50:27;;;;;;;;;0.00;0.00;;;;;16.30;57.50;100326.00;146640;565;45010;-76
2023/11/05 03:53:37;;;;;;;;;0.00;0.00;;;;;16.34;57.99;100313.00;146639;591;46010;-75
2023/11/05 03:56:41;;;;;;;;;0.00;0.00;;;;;16.37;57.66;100323.53;146638;672;46014;-80
2023/11/05 03:59:45;;;;;;;;;0.00;0.00;;;;;16.35;57.17;100313.88;146636;641;45020;-78
2023/11/05 04:02:40;;;;;;;;;1.00;0.00;;;;;16.37;58.04;100320.03;146636;575;45016;-79
2023/11/05 04:05:54;;;;;;;;;0.00;0.00;;;;;16.35;57.46;100316.50;146638;588;45021;-79
2023/11/05 04:08:59;;;;;;;;;0.00;0.00;;;;;16.31;57.97;100314.66;146637;582;45922;-78
2023/11/05 04:11:55;;;;;;;;;0.00;0.00;;;;;16.27;57.67;100318.09;146641;638;44918;-76
2023/11/05 04:15:02;;;;;;;;;;;;;;;;;;;;;
2023/11/05 04:17:54;;;;;;;;;0.00;0.00;;;;;16.18;58.13;100316.13;146633;593;46011;-77
2023/11/05 04:20:53;;;;;;;;;0.00;0.00;;;;;16.21;58.40;100320.56;146621;589;45919;-77
2023/11/05 04:23:48;;;;;;;;;0.00;0.00;;;;;16.23;60.01;100324.06;146623;586;46010;-77
2023/11/05 04:26:47;;;;;;;;;5.50;4.75;;;;;16.23;58.88;100324.97;146622;597;46012;-82
2023/11/05 04:29:52;;;;;;;;;2.33;1.00;;;;;16.23;58.96;100324.97;146614;578;47010;-82
2023/11/05 04:32:59;;;;;;;;;1.67;0.00;;;;;16.22;59.18;100330.16;146619;593;46918;-79
2023/11/05 04:35:59;;;;;;;;;0.00;0.00;;;;;16.16;59.72;100320.44;146618;569;46010;-79
2023/11/05 04:38:55;;;;;;;;;0.33;0.00;;;;;16.13;60.57;100330.84;146621;638;47012;-75
2023/11/05 04:41:53;;;;;;;;;0.00;0.00;;;;;16.08;61.02;100319.41;146620;632;45031;-73
2023/11/05 04:44:45;;;;;;;;;0.00;0.00;;;;;15.96;61.64;100332.22;146616;580;47012;-75
2023/11/05 04:48:11;;;;;;;;;0.00;0.00;;;;;14.95;60.59;100182.59;146624;602;46010;-76
2023/11/05 04:51:20;;;;;;;;;;;;;;;;;;;;;
2023/11/05 04:54:25;;;;;;;;;0.00;0.00;;;;;14.45;61.15;100124.72;146623;678;47012;-80
2023/11/05 04:57:29;;;;;;;;;0.00;0.00;;;;;15.73;62.07;100348.19;146620;613;46016;-77
2023/11/05 05:00:24;;;;;;;;;2.33;0.00;;;;;15.74;61.79;100350.00;146617;612;46012;-79
2023/11/05 05:03:20;;;;;;;;;1.00;0.00;;;;;15.75;61.69;100359.59;146619;618;47014;-81
2023/11/05 05:06:21;;;;;;;;;1.67;0.33;;;;;15.77;61.59;100364.88;146620;618;46020;-81
2023/11/05 05:09:36;;;;;;;;;;;;;;;;;;;;;
2023/11/05 05:12:43;;;;;;;;;1.00;0.00;;;;;15.91;61.55;100359.09;146625;596;46029;-79
2023/11/05 05:15:35;;;;;;;;;1.00;1.00;;;;;15.98;62.83;100365.41;146619;653;46016;-76
2023/11/05 05:18:39;;;;;;;;;0.00;0.00;;;;;16.01;62.62;100365.47;146622;594;46035;-77
2023/11/05 05:21:36;;;;;;;;;0.00;0.00;;;;;15.99;62.65;100366.28;146618;624;46016;-76
2023/11/05 05:24:28;;;;;;;;;4.67;2.00;;;;;15.94;63.07;100372.25;146622;573;46020;-79
2023/11/05 05:27:34;;;;;;;;;0.00;0.00;;;;;14.75;62.67;100176.84;146616;641;48014;-75
2023/11/05 05:30:34;;;;;;;;;1.00;0.00;;;;;15.89;63.40;100373.03;146617;564;46020;-75
2023/11/05 05:33:33;;;;;;;;;2.00;0.00;;;;;15.88;63.40;100369.50;146619;567;47012;-74
2023/11/05 05:36:27;;;;;;;;;1.00;0.00;;;;;15.99;64.20;100381.97;146621;579;47020;-76
2023/11/05 05:39:37;;;;;;;;;1.00;1.00;;;;;15.17;63.73;100167.41;146614;662;47016;-81
2023/11/05 05:42:42;;;;;;;;;1.00;1.00;;;;;16.94;61.77;100382.31;146620;640;46020;-78
2023/11/05 05:45:37;;;;;;;;;1.00;1.00;;;;;17.23;61.00;100380.28;146621;684;45028;-84
2023/11/05 05:48:37;;;;;;;;;2.33;1.00;;;;;17.61;59.90;100387.06;146622;592;47012;-83
2023/11/05 05:51:53;;;;;;;;;1.33;0.33;;;;;17.91;59.51;100391.94;146622;614;46012;-83
2023/11/05 05:54:57;;;;;;;;;1.00;1.00;;;;;18.04;59.52;100399.19;146622;636;46021;-82
2023/11/05 05:57:56;;;;;;;;;0.00;0.00;;;;;18.14;59.62;100390.59;146617;573;47012;-81
2023/11/05 06:00:50;;;;;;;;;3.00;2.00;;;;;18.23;60.35;100393.34;146617;579;46011;-82
2023/11/05 06:03:44;;;;;;;;;2.33;1.67;;;;;18.18;60.44;100399.37;146613;608;46016;-83
2023/11/05 06:06:41;;;;;;;;;8.00;4.00;;;;;18.02;60.59;100410.50;146621;605;45020;-81
2023/11/05 06:09:34;;;;;;;;;9.00;6.75;;;;;17.90;59.57;100398.94;146616;637;46038;-77
2023/11/05 06:12:19;;;;;;;;;4.00;4.00;;;;;17.85;60.89;100411.13;146703;563;46023;-76
2023/11/05 06:15:17;;;;;;;;;5.75;4.75;;;;;17.89;60.79;100415.53;146615;609;47016;-77
2023/11/05 06:18:15;;;;;;;;;8.50;8.50;;;;;18.04;60.58;100408.75;146621;675;47020;-75
2023/11/05 06:21:39;;;;;;;;;14.50;12.25;;;;;18.20;59.58;100403.78;146618;662;46033;-84
2023/11/05 06:24:42;;;;;;;;;15.75;11.00;;;;;18.28;60.64;100400.38;146614;638;46042;-87
2023/11/05 06:27:44;;;;;;;;;;;;;;;;;;;;;
2023/11/05 06:30:51;;;;;;;;;15.75;13.00;;;;;18.75;62.53;100408.94;146614;616;46020;-89
2023/11/05 06:33:45;;;;;;;;;12.00;10.00;;;;;18.95;60.43;100410.97;146608;685;47016;-86
2023/11/05 06:37:13;;;;;;;;;14.50;11.50;;;;;18.55;57.89;100334.28;146615;566;47020;-87
2023/11/05 06:40:36;;;;;;;;;13.75;10.25;;;;;19.29;56.93;100426.25;146612;662;46016;-75
2023/11/05 06:43:42;;;;;;;;;11.75;8.50;;;;;19.37;58.36;100442.97;146612;570;46021;-75
2023/11/05 06:46:38;;;;;;;;;10.33;9.00;;;;;19.43;58.69;100442.16;146619;592;46016;-77
2023/11/05 06:49:33;;;;;;;;;11.00;10.00;;;;;19.46;59.58;100443.94;146620;643;46020;-76
2023/11/05 06:52:39;;;;;;;;;10.00;8.50;;;;;19.44;58.49;100438.69;146610;602;46016;-77
2023/11/05 06:55:43;;;;;;;;;7.00;5.33;;;;;19.52;57.23;100442.28;146625;626;46010;-77
2023/11/05 06:58:35;;;;;;;;;4.67;4.33;;;;;19.64;57.16;100440.63;146618;583;46016;-76
2023/11/05 07:01:38;;;;;;;;;2.33;2.00;;;;;19.66;56.78;100436.28;146621;576;46020;-78
2023/11/05 07:04:55;;;;;;;;;3.00;2.00;;;;;19.64;58.05;100440.63;146617;570;46017;-77
2023/11/05 07:07:52;;;;;;;;;7.67;7.67;;;;;19.65;58.40;100438.03;146622;636;47012;-75
2023/11/05 07:10:55;;;;;;;;;8.33;7.33;;;;;19.71;57.54;100427.56;146616;653;46016;-76
2023/11/05 07:13:54;;;;;;;;;5.00;4.00;;;;;19.79;58.32;100433.81;146622;579;46021;-77
2023/11/05 07:17:10;;;;;;;;;10.67;8.00;;;;;19.86;56.75;100440.00;146614;604;46916;-73
2023/11/05 07:20:24;;;;;;;;;7.00;7.00;;;;;19.95;56.36;100450.59;146624;628;46020;-79
2023/11/05 07:23:23;;;;;;;;;4.00;2.33;;;;;20.04;55.01;100441.91;146615;685;46039;-80
2023/11/05 07:26:25;;;;;;;;;5.33;4.33;;;;;20.17;55.77;100446.41;146624;627;46010;-77
2023/11/05 07:29:27;;;;;;;;;4.67;4.00;;;;;20.26;55.11;100435.06;146618;570;47012;-80
2023/11/05 07:32:23;;;;;;;;;5.00;5.00;;;;;20.33;54.51;100441.25;146623;595;46020;-79
2023/11/05 07:35:15;;;;;;;;;5.00;5.00;;;;;20.40;55.23;100436.00;146616;591;46017;-80
2023/11/05 07:38:10;;;;;;;;;6.00;3.00;;;;;20.58;53.96;100445.81;146621;577;47020;-82
2023/11/05 07:41:19;;;;;;;;;4.33;2.33;;;;;20.80;56.40;100433.66;146619;571;46016;-83
2023/11/05 07:44:14;;;;;;;;;4.33;3.67;;;;;21.08;55.88;100432.00;146623;671;47010;-85
2023/11/05 07:47:10;;;;;;;;;6.33;3.67;;;;;21.34;54.62;100436.47;146617;648;47014;-84
2023/11/05 07:50:23;;;;;;;;;4.00;3.33;;;;;20.85;52.63;100289.62;146622;718;46020;-83
2023/11/05 07:53:17;;;;;;;;;2.67;2.00;;;;;21.82;53.23;100430.44;146615;563;47012;-83
2023/11/05 07:56:25;;;;;;;;;1.00;0.33;;;;;22.11;53.10;100427.78;146622;579;46021;-84
2023/11/05 07:59:55;;;;;;;;;0.00;0.00;;;;;22.37;46.13;100427.81;146613;598;49012;-75
2023/11/05 08:03:01;;;;;;;;;0.00;0.00;;;;;22.63;47.44;100421.59;146621;571;46021;-77
2023/11/05 08:06:13;;;;;;;;;1.00;0.00;;;;;22.88;48.77;100414.44;146612;603;48012;-77
2023/11/05 08:09:20;;;;;;;;;0.00;0.00;;;;;23.18;46.54;100420.53;146622;572;46033;-78
2023/11/05 08:12:22;;;;;;;;;0.00;0.00;;;;;23.40;44.90;100408.06;146616;637;47016;-79
2023/11/05 08:15:25;;;;;;;;;0.00;0.00;;;;;23.60;47.37;100414.06;146621;634;46020;-77
2023/11/05 08:18:29;;;;;;;;;0.00;0.00;;;;;23.76;43.12;100414.00;146619;564;47918;-75
2023/11/05 08:21:42;;;;;;;;;0.00;0.00;;;;;23.80;41.35;100419.28;146619;668;46020;-76
2023/11/05 08:24:39;;;;;;;;;2.00;2.00;;;;;23.81;46.35;100417.50;146616;582;46016;-78
2023/11/05 08:27:42;;;;;;;;;;;;;;;;;;;;;
2023/11/05 08:30:36;;;;;;;;;1.67;1.00;;;;;23.94;46.76;100420.03;146617;575;46037;-77
2023/11/05 08:33:39;;;;;;;;;4.00;1.00;;;;;24.05;46.95;100412.00;146622;610;46021;-80
2023/11/05 08:36:48;;;;;;;;;0.00;0.00;;;;;23.65;48.60;100335.53;146621;688;46012;-78
2023/11/05 08:39:45;;;;;;;;;2.00;0.67;;;;;24.23;45.52;100415.34;146619;646;46026;-77
2023/11/05 08:42:44;;;;;;;;;0.00;0.00;;;;;24.34;43.34;100414.38;146617;708;47012;-78
2023/11/05 08:46:01;;;;;;;;;0.00;0.00;;;;;24.48;43.03;100416.03;146618;738;46020;-77
2023/11/05 08:49:03;;;;;;;;;2.67;1.00;;;;;24.62;45.67;100407.03;146616;656;46016;-78
2023/11/05 08:52:01;;;;;;;;;1.00;0.00;;;;;24.76;44.75;100392.72;146624;607;46020;-77
2023/11/05 08:55:05;;;;;;;;;0.67;0.00;;;;;24.86;44.69;100395.25;146616;576;47013;-79
2023/11/05 08:58:07;;;;;;;;;2.67;1.33;;;;;24.94;43.72;100384.53;146619;589;47020;-78
2023/11/05 09:01:25;;;;;;;;;0.00;0.00;;;;;25.00;43.44;100386.22;146621;719;46016;-80
2023/11/05 09:04:27;;;;;;;;;0.33;0.00;;;;;24.96;40.43;100393.37;146623;710;46012;-78
2023/11/05 09:07:19;;;;;;;;;0.00;0.00;;;;;24.91;39.57;100389.00;146618;565;46012;-77
2023/11/05 09:10:20;;;;;;;;;0.33;0.00;;;;;24.83;40.66;100391.78;146622;604;46021;-77
2023/11/05 09:13:21;;;;;;;;;0.00;0.00;;;;;24.78;38.45;100390.94;146617;685;46016;-82
2023/11/05 09:16:22;;;;;;;;;0.00;0.00;;;;;24.65;40.18;100379.59;146619;599;46020;-80
2023/11/05 09:19:25;;;;;;;;;0.00;0.00;;;;;24.64;43.48;100385.78;146619;570;47012;-82
2023/11/05 09:22:30;;;;;;;;;0.00;0.00;;;;;24.74;41.64;100382.16;146619;577;48010;-80
2023/11/05 09:25:32;;;;;;;;;0.33;0.00;;;;;24.85;41.56;100385.53;146615;579;46017;-79
2023/11/05 09:28:33;;;;;;;;;0.33;0.00;;;;;24.93;41.58;100385.44;146621;637;46010;-81
2023/11/05 09:31:41;;;;;;;;;0.00;0.00;;;;;25.00;43.67;100379.16;146620;695;46034;-79
2023/11/05 09:34:52;;;;;;;;;0.00;0.00;;;;;25.13;42.23;100385.19;146623;579;47010;-77
2023/11/05 09:37:51;;;;;;;;;0.00;0.00;;;;;25.20;42.70;100370.06;146618;630;46016;-78
2023/11/05 09:41:11;;;;;;;;;0.00;0.00;;;;;25.32;41.41;100368.09;146618;581;47012;-78
2023/11/05 09:44:10;;;;;;;;;0.00;0.00;;;;;25.51;39.96;100368.72;146618;594;46016;-76
2023/11/05 09:47:12;;;;;;;;;0.00;0.00;;;;;25.63;38.69;100359.66;146621;573;46020;-78
2023/11/05 09:50:18;;;;;;;;;0.00;0.00;;;;;25.66;40.62;100364.91;146614;600;46016;-80
2023/11/05 09:53:28;;;;;;;;;1.00;0.00;;;;;25.68;42.11;100349.84;146621;572;47013;-80
2023/11/05 09:56:26;;;;;;;;;2.33;2.00;;;;;25.74;38.22;100355.06;146618;571;46017;-77
2023/11/05 09:59:34;;;;;;;;;2.00;1.00;;;;;25.66;40.52;100342.81;146621;585;46010;-78
2023/11/05 10:03:12;;;;;;;;;;;;;;;;;;;;;
2023/11/05 10:06:39;;;;;;;;;0.00;0.00;;;;;25.40;42.61;100333.50;146620;564;46020;-79
2023/11/05 10:09:36;;;;;;;;;0.00;0.00;;;;;25.49;40.72;100330.69;146618;589;47016;-80
2023/11/05 10:12:45;;;;;;;;;0.33;0.33;;;;;25.53;39.59;100329.72;146618;580;46020;-79
2023/11/05 10:15:43;;;;;;;;;2.00;2.00;;;;;25.61;41.29;100326.06;146619;605;47012;-78
2023/11/05 10:18:42;;;;;;;;;0.00;0.00;;;;;25.68;41.90;100323.31;146618;689;46021;-79
2023/11/05 10:21:46;;;;;;;;;0.00;0.00;;;;;25.77;41.21;100311.66;146615;643;47917;-80
2023/11/05 10:24:52;;;;;;;;;2.00;0.00;;;;;25.89;42.45;100308.81;146622;576;46021;-79
2023/11/05 10:28:15;;;;;;;;;0.00;0.00;;;;;26.03;40.48;100297.91;146619;600;47012;-80
2023/11/05 10:31:17;;;;;;;;;0.00;0.00;;;;;26.19;39.09;100287.84;146624;600;46021;-81
2023/11/05 10:34:14;;;;;;;;;0.33;0.33;;;;;26.33;40.00;100279.62;146617;579;47012;-80
2023/11/05 10:37:17;;;;;;;;;2.00;2.00;;;;;26.47;39.94;100277.53;146621;565;46020;-79
2023/11/05 10:40:16;;;;;;;;;1.00;1.00;;;;;26.56;40.30;100269.38;146618;729;46017;-80
2023/11/05 10:43:28;;;;;;;;;1.00;1.00;;;;;26.64;38.79;100269.25;146621;569;46010;-80
2023/11/05 10:46:24;;;;;;;;;0.00;0.00;;;;;26.75;40.48;100275.19;146616;557;46016;-80
2023/11/05 10:49:19;;;;;;;;;0.00;0.00;;;;;26.84;39.50;100266.12;146624;561;46010;-80
2023/11/05 10:52:15;;;;;;;;;0.00;0.00;;;;;26.88;38.18;100266.00;146615;585;46016;-79
2023/11/05 10:55:26;;;;;;;;;1.00;0.00;;;;;26.89;41.18;100261.59;146622;588;46020;-81
2023/11/05 10:58:47;;;;;;;;;0.00;0.00;;;;;26.82;40.90;100255.53;146615;569;46012;-80
2023/11/05 11:01:51;;;;;;;;;0.00;0.00;;;;;26.85;39.48;100235.94;146622;672;46012;-79
2023/11/05 11:04:48;;;;;;;;;1.67;1.67;;;;;26.84;40.80;100240.37;146620;604;46014;-82
2023/11/05 11:08:00;;;;;;;;;0.00;0.00;;;;;26.84;37.94;100251.03;146625;701;46010;-78
2023/11/05 11:11:11;;;;;;;;;0.67;0.00;;;;;26.75;42.67;100250.37;146619;651;46918;-78
2023/11/05 11:14:10;;;;;;;;;1.00;0.00;;;;;26.60;41.06;100243.59;146619;708;47010;-80
2023/11/05 11:17:31;;;;;;;;;0.33;0.00;;;;;26.40;39.59;100233.37;146614;604;46017;-78
2023/11/05 11:20:48;;;;;;;;;5.00;3.67;;;;;25.57;42.19;100137.62;146617;570;46020;-78
2023/11/05 11:24:01;;;;;;;;;1.00;0.00;;;;;26.18;41.02;100246.25;146617;676;47013;-78
2023/11/05 11:27:03;;;;;;;;;0.00;0.00;;;;;26.25;40.14;100243.44;146622;622;46010;-78
2023/11/05 11:30:06;;;;;;;;;1.67;1.00;;;;;26.43;40.05;100238.62;146615;572;46016;-79
2023/11/05 11:33:03;;;;;;;;;1.00;1.00;;;;;26.63;39.45;100241.75;146612;606;46020;-78
2023/11/05 11:35:58;;;;;;;;;1.00;0.00;;;;;26.76;37.17;100225.50;146614;737;46016;-80
2023/11/05 11:38:59;;;;;;;;;2.67;2.67;;;;;26.81;41.05;100223.63;146621;566;47010;-83
2023/11/05 11:42:05;;;;;;;;;4.00;3.67;;;;;26.87;41.19;100213.72;146616;588;47031;-81
2023/11/05 11:45:26;;;;;;;;;1.00;1.00;;;;;26.50;40.72;100128.63;146620;654;47010;-82
2023/11/05 11:48:27;;;;;;;;;2.67;1.33;;;;;27.16;38.00;100215.69;146616;645;47014;-81
2023/11/05 11:51:25;;;;;;;;;0.00;0.00;;;;;27.27;39.54;100220.75;146621;574;47010;-80
2023/11/05 11:54:26;;;;;;;;;1.00;0.00;;;;;27.36;37.65;100217.84;146616;570;47014;-77
2023/11/05 11:57:22;;;;;;;;;1.00;1.00;;;;;27.36;38.49;100212.53;146620;610;48020;-80
2023/11/05 12:00:25;;;;;;;;;0.00;0.00;;;;;27.22;37.60;100204.00;146618;575;47012;-78
2023/11/05 12:03:25;;;;;;;;;2.00;2.00;;;;;26.95;39.41;100210.88;146609;579;47010;-83
2023/11/05 12:06:27;;;;;;;;;1.33;1.33;;;;;26.90;40.58;100210.13;146617;594;46919;-79
2023/11/05 12:09:49;;;;;;;;;1.00;1.00;;;;;26.08;42.10;100064.03;146620;642;46010;-81
2023/11/05 12:13:02;;;;;;;;;2.67;2.00;;;;;27.09;41.12;100214.06;146621;639;46016;-81
2023/11/05 12:16:01;;;;;;;;;2.67;2.00;;;;;27.30;40.36;100222.47;146620;566;46021;-83
2023/11/05 12:19:02;;;;;;;;;3.67;3.67;;;;;27.47;40.78;100222.03;146614;651;46016;-83
2023/11/05 12:22:04;;;;;;;;;7.33;7.00;;;;;27.56;38.22;100209.34;146618;605;47021;-80
2023/11/05 12:25:24;;;;;;;;;2.33;2.33;;;;;27.58;40.91;100202.19;146617;566;46016;-82
2023/11/05 12:28:44;;;;;;;;;4.00;4.00;;;;;27.54;40.11;100210.28;146620;592;47010;-79
2023/11/05 12:31:50;;;;;;;;;3.67;3.33;;;;;27.42;38.95;100198.19;146618;569;46016;-81
2023/11/05 12:35:00;;;;;;;;;;;;;;;;;;;;;
2023/11/05 12:37:55;;;;;;;;;4.00;4.00;;;;;27.40;40.64;100215.97;146618;601;46016;-84
2023/11/05 12:40:53;;;;;;;;;4.00;4.00;;;;;27.48;41.94;100207.81;146622;594;46020;-83
2023/11/05 12:43:54;;;;;;;;;5.00;5.00;;;;;27.64;40.98;100198.50;146612;601;47918;-84
2023/11/05 12:47:01;;;;;;;;;7.00;5.67;;;;;27.84;40.62;100203.28;146618;599;46020;-82
2023/11/05 12:50:14;;;;;;;;;3.33;3.33;;;;;27.81;39.09;100214.03;146620;576;46012;-83
2023/11/05 12:53:21;;;;;;;;;4.67;4.67;;;;;27.79;40.81;100216.75;146621;596;47010;-81
2023/11/05 12:56:23;;;;;;;;;1.33;1.00;;;;;27.87;38.96;100201.41;146618;569;46016;-83
2023/11/05 12:59:22;;;;;;;;;3.00;3.00;;;;;27.89;39.82;100195.19;146621;633;47012;-84
2023/11/05 13:02:21;;;;;;;;;3.00;3.00;;;;;27.91;39.12;100195.97;146617;701;46918;-83
2023/11/05 13:05:27;;;;;;;;;5.00;4.33;;;;;27.94;40.59;100196.75;146608;604;46020;-84
2023/11/05 13:20:53;;;;;;;;;4.00;4.00;;;;;28.47;37.16;100161.44;146632;571;46022;-88
2023/11/05 13:23:50;;;;;;;;;4.00;3.00;;;;;28.50;38.93;100166.69;146612;578;46017;-78
2023/11/05 13:47:01;;;;;;;;;4.33;4.00;;;;;28.35;38.54;100170.69;146641;568;46044;-80
2023/11/05 13:49:56;;;;;;;;;3.00;2.33;;;;;28.47;37.75;100169.47;146617;633;46010;-78
2023/11/05 13:52:50;;;;;;;;;4.33;3.33;;;;;28.42;38.29;100164.28;146621;611;47008;-82
2023/11/05 13:55:50;;;;;;;;;4.00;3.00;;;;;28.16;38.11;100173.03;146620;570;46016;-81
2023/11/05 13:58:46;;;;;;;;;2.33;2.33;;;;;27.75;38.85;100169.75;146625;568;46020;-79
2023/11/05 14:01:44;;;;;;;;;7.67;3.67;;;;;27.44;39.43;100167.06;146611;596;46017;-79
2023/11/05 14:05:01;;;;;;;;;4.00;4.00;;;;;27.16;40.28;100169.56;146620;634;46020;-79
2023/11/05 14:07:59;;;;;;;;;6.67;4.00;;;;;26.88;39.91;100172.87;146618;577;46016;-86
2023/11/05 14:11:00;;;;;;;;;3.00;2.00;;;;;26.70;40.98;100173.38;146623;597;46021;-79
2023/11/05 14:13:58;;;;;;;;;2.33;2.33;;;;;26.54;40.58;100175.47;146615;589;47010;-84
2023/11/05 14:16:56;;;;;;;;;3.00;2.33;;;;;26.43;42.52;100185.47;146622;574;47021;-80
2023/11/05 14:20:03;;;;;;;;;3.00;2.33;;;;;26.33;42.83;100181.28;146614;598;47010;-79
2023/11/05 14:23:12;;;;;;;;;2.00;2.00;;;;;26.18;41.22;100178.03;146624;644;46049;-79
2023/11/05 14:26:22;;;;;;;;;1.33;1.00;;;;;26.00;41.12;100195.22;146618;563;46016;-82
2023/11/05 14:29:44;;;;;;;;;3.33;2.00;;;;;25.81;42.59;100191.19;146620;657;47008;-87
2023/11/05 14:32:44;;;;;;;;;3.00;3.00;;;;;25.71;42.32;100192.25;146616;641;47011;-80
2023/11/05 14:35:58;;;;;;;;;;;;;;;;;;;;;
2023/11/05 14:39:13;;;;;;;;;3.33;2.33;;;;;25.50;42.52;100190.88;146615;603;47010;-80
2023/11/05 14:42:28;;;;;;;;;3.00;3.00;;;;;25.40;43.75;100184.00;146623;602;47008;-80
2023/11/05 14:45:33;;;;;;;;;3.00;2.00;;;;;25.23;42.95;100174.53;146614;594;47010;-80
2023/11/05 14:48:43;;;;;;;;;2.33;2.33;;;;;25.07;43.35;100181.84;146614;703;46021;-82
2023/11/05 14:51:51;;;;;;;;;3.00;2.00;;;;;24.93;43.85;100180.34;146612;643;46016;-81
2023/11/05 14:55:04;;;;;;;;;2.00;1.33;;;;;24.81;43.95;100178.78;146614;611;47008;-77
2023/11/05 14:58:01;;;;;;;;;1.67;1.67;;;;;24.73;44.34;100181.53;146610;655;46016;-82
2023/11/05 15:00:56;;;;;;;;;4.00;3.00;;;;;24.59;44.49;100167.62;146614;577;47009;-79